sensor_id;sensor_type;location;lat;lon;timestamp;temperature;humidity
37658;DHT22;23500;53.268;8.308;2023-09-07T00:01:08;22.60;75.30
37658;DHT22;23500;53.268;8.308;2023-09-07T00:03:34;22.60;75.30
37658;DHT22;23500;53.268;8.308;2023-09-07T00:06:00;22.60;75.30
37658;DHT22;23500;53.268;8.308;2023-09-07T00:08:26;22.60;75.40
37658;DHT22;23500;53.268;8.308;2023-09-07T00:10:51;22.60;75.30
37658;DHT22;23500;53.268;8.308;2023-09-07T00:13:17;22.60;75.40
37658;DHT22;23500;53.268;8.308;2023-09-07T00:15:43;22.60;75.50
37658;DHT22;23500;53.268;8.308;2023-09-07T00:18:09;22.60;75.50
37658;DHT22;23500;53.268;8.308;2023-09-07T00:20:35;22.60;75.50
37658;DHT22;23500;53.268;8.308;2023-09-07T00:23:01;22.50;75.60
37658;DHT22;23500;53.268;8.308;2023-09-07T00:25:27;22.50;75.50
37658;DHT22;23500;53.268;8.308;2023-09-07T00:27:52;22.50;75.60
37658;DHT22;23500;53.268;8.308;2023-09-07T00:30:18;22.50;76.30
37658;DHT22;23500;53.268;8.308;2023-09-07T00:32:44;22.50;75.60
37658;DHT22;23500;53.268;8.308;2023-09-07T00:35:10;22.50;75.70
37658;DHT22;23500;53.268;8.308;2023-09-07T00:37:36;22.40;75.70
37658;DHT22;23500;53.268;8.308;2023-09-07T00:40:02;22.50;75.80
37658;DHT22;23500;53.268;8.308;2023-09-07T00:42:29;22.40;75.80
37658;DHT22;23500;53.268;8.308;2023-09-07T00:44:54;22.40;75.70
37658;DHT22;23500;53.268;8.308;2023-09-07T00:47:21;22.40;75.80
37658;DHT22;23500;53.268;8.308;2023-09-07T00:49:48;22.40;75.90
37658;DHT22;23500;53.268;8.308;2023-09-07T00:52:14;22.40;75.90
37658;DHT22;23500;53.268;8.308;2023-09-07T00:54:40;22.40;75.90
37658;DHT22;23500;53.268;8.308;2023-09-07T00:57:07;22.40;76.00
37658;DHT22;23500;53.268;8.308;2023-09-07T00:59:33;22.40;76.10
37658;DHT22;23500;53.268;8.308;2023-09-07T01:01:59;22.40;76.00
37658;DHT22;23500;53.268;8.308;2023-09-07T01:04:25;22.40;76.20
37658;DHT22;23500;53.268;8.308;2023-09-07T01:06:56;22.30;76.10
37658;DHT22;23500;53.268;8.308;2023-09-07T01:09:26;22.30;76.10
37658;DHT22;23500;53.268;8.308;2023-09-07T01:11:53;22.30;76.10
37658;DHT22;23500;53.268;8.308;2023-09-07T01:14:19;22.30;76.10
37658;DHT22;23500;53.268;8.308;2023-09-07T01:16:45;22.30;76.10
37658;DHT22;23500;53.268;8.308;2023-09-07T01:19:11;22.30;76.30
37658;DHT22;23500;53.268;8.308;2023-09-07T01:24:14;22.30;76.30
37658;DHT22;23500;53.268;8.308;2023-09-07T01:26:40;22.30;76.40
37658;DHT22;23500;53.268;8.308;2023-09-07T01:29:08;22.30;76.30
37658;DHT22;23500;53.268;8.308;2023-09-07T01:31:38;22.20;76.30
37658;DHT22;23500;53.268;8.308;2023-09-07T01:34:04;22.20;76.40
37658;DHT22;23500;53.268;8.308;2023-09-07T01:36:30;22.20;76.40
37658;DHT22;23500;53.268;8.308;2023-09-07T01:38:56;22.20;76.20
37658;DHT22;23500;53.268;8.308;2023-09-07T01:41:21;22.20;76.40
37658;DHT22;23500;53.268;8.308;2023-09-07T01:43:48;22.20;76.40
37658;DHT22;23500;53.268;8.308;2023-09-07T01:46:14;22.20;76.60
37658;DHT22;23500;53.268;8.308;2023-09-07T01:48:39;22.20;76.50
37658;DHT22;23500;53.268;8.308;2023-09-07T01:51:07;22.20;76.60
37658;DHT22;23500;53.268;8.308;2023-09-07T01:53:33;22.20;76.50
37658;DHT22;23500;53.268;8.308;2023-09-07T01:55:59;22.20;76.60
37658;DHT22;23500;53.268;8.308;2023-09-07T01:58:24;22.20;76.60
37658;DHT22;23500;53.268;8.308;2023-09-07T02:00:52;22.10;76.40
37658;DHT22;23500;53.268;8.308;2023-09-07T02:03:17;22.10;76.40
37658;DHT22;23500;53.268;8.308;2023-09-07T02:05:45;22.10;76.70
37658;DHT22;23500;53.268;8.308;2023-09-07T02:08:11;22.10;76.60
37658;DHT22;23500;53.268;8.308;2023-09-07T02:10:37;22.10;76.80
37658;DHT22;23500;53.268;8.308;2023-09-07T02:13:03;22.10;76.80
37658;DHT22;23500;53.268;8.308;2023-09-07T02:15:29;22.10;76.70
37658;DHT22;23500;53.268;8.308;2023-09-07T02:17:54;22.10;76.60
37658;DHT22;23500;53.268;8.308;2023-09-07T02:20:20;22.10;76.70
37658;DHT22;23500;53.268;8.308;2023-09-07T02:22:46;22.10;76.80
37658;DHT22;23500;53.268;8.308;2023-09-07T02:25:12;22.10;76.80
37658;DHT22;23500;53.268;8.308;2023-09-07T02:27:37;22.10;76.80
37658;DHT22;23500;53.268;8.308;2023-09-07T02:30:04;22.00;76.70
37658;DHT22;23500;53.268;8.308;2023-09-07T02:32:31;22.00;76.80
37658;DHT22;23500;53.268;8.308;2023-09-07T02:34:57;22.00;77.00
37658;DHT22;23500;53.268;8.308;2023-09-07T02:37:23;22.00;76.90
37658;DHT22;23500;53.268;8.308;2023-09-07T02:39:48;22.00;76.70
37658;DHT22;23500;53.268;8.308;2023-09-07T02:42:14;22.00;76.50
37658;DHT22;23500;53.268;8.308;2023-09-07T02:44:40;22.00;76.50
37658;DHT22;23500;53.268;8.308;2023-09-07T02:47:05;22.00;76.40
37658;DHT22;23500;53.268;8.308;2023-09-07T02:49:31;22.00;76.50
37658;DHT22;23500;53.268;8.308;2023-09-07T02:51:57;22.00;76.60
37658;DHT22;23500;53.268;8.308;2023-09-07T02:54:22;22.00;76.60
37658;DHT22;23500;53.268;8.308;2023-09-07T02:56:49;22.00;76.70
37658;DHT22;23500;53.268;8.308;2023-09-07T02:59:14;21.90;76.70
37658;DHT22;23500;53.268;8.308;2023-09-07T03:01:40;21.90;77.00
37658;DHT22;23500;53.268;8.308;2023-09-07T03:04:06;21.90;76.80
37658;DHT22;23500;53.268;8.308;2023-09-07T03:06:32;21.90;77.00
37658;DHT22;23500;53.268;8.308;2023-09-07T03:08:58;21.90;76.80
37658;DHT22;23500;53.268;8.308;2023-09-07T03:11:24;21.90;76.90
37658;DHT22;23500;53.268;8.308;2023-09-07T03:13:49;21.90;77.10
37658;DHT22;23500;53.268;8.308;2023-09-07T03:16:15;21.90;77.90
37658;DHT22;23500;53.268;8.308;2023-09-07T03:18:41;21.90;77.00
37658;DHT22;23500;53.268;8.308;2023-09-07T03:21:06;21.90;76.90
37658;DHT22;23500;53.268;8.308;2023-09-07T03:23:33;21.90;76.70
37658;DHT22;23500;53.268;8.308;2023-09-07T03:25:59;21.90;76.90
37658;DHT22;23500;53.268;8.308;2023-09-07T03:28:25;21.90;76.80
37658;DHT22;23500;53.268;8.308;2023-09-07T03:30:53;21.90;76.60
37658;DHT22;23500;53.268;8.308;2023-09-07T03:33:18;21.90;76.90
37658;DHT22;23500;53.268;8.308;2023-09-07T03:35:44;21.80;76.80
37658;DHT22;23500;53.268;8.308;2023-09-07T03:38:11;21.80;76.90
37658;DHT22;23500;53.268;8.308;2023-09-07T03:40:36;21.80;76.90
37658;DHT22;23500;53.268;8.308;2023-09-07T03:43:02;21.80;77.00
37658;DHT22;23500;53.268;8.308;2023-09-07T03:45:28;21.80;76.90
37658;DHT22;23500;53.268;8.308;2023-09-07T03:47:54;21.80;76.80
37658;DHT22;23500;53.268;8.308;2023-09-07T03:50:20;21.80;76.60
37658;DHT22;23500;53.268;8.308;2023-09-07T03:52:45;21.80;76.70
37658;DHT22;23500;53.268;8.308;2023-09-07T03:55:11;21.80;76.90
37658;DHT22;23500;53.268;8.308;2023-09-07T03:57:37;21.80;76.90
37658;DHT22;23500;53.268;8.308;2023-09-07T04:00:03;21.80;77.20
37658;DHT22;23500;53.268;8.308;2023-09-07T04:02:33;21.80;77.10
37658;DHT22;23500;53.268;8.308;2023-09-07T04:04:58;21.80;77.30
37658;DHT22;23500;53.268;8.308;2023-09-07T04:07:27;21.80;77.30
37658;DHT22;23500;53.268;8.308;2023-09-07T04:09:52;21.80;77.10
37658;DHT22;23500;53.268;8.308;2023-09-07T04:12:18;21.80;76.70
37658;DHT22;23500;53.268;8.308;2023-09-07T04:14:44;21.80;76.50
37658;DHT22;23500;53.268;8.308;2023-09-07T04:17:10;21.70;76.30
37658;DHT22;23500;53.268;8.308;2023-09-07T04:19:36;21.70;76.60
37658;DHT22;23500;53.268;8.308;2023-09-07T04:22:01;21.70;76.60
37658;DHT22;23500;53.268;8.308;2023-09-07T04:24:27;21.70;76.60
37658;DHT22;23500;53.268;8.308;2023-09-07T04:26:53;21.70;76.30
37658;DHT22;23500;53.268;8.308;2023-09-07T04:29:23;21.70;76.50
37658;DHT22;23500;53.268;8.308;2023-09-07T04:31:48;21.70;76.50
37658;DHT22;23500;53.268;8.308;2023-09-07T04:34:14;21.70;76.20
37658;DHT22;23500;53.268;8.308;2023-09-07T04:36:40;21.70;76.20
37658;DHT22;23500;53.268;8.308;2023-09-07T04:39:05;21.60;76.20
37658;DHT22;23500;53.268;8.308;2023-09-07T04:41:31;21.60;76.20
37658;DHT22;23500;53.268;8.308;2023-09-07T04:43:57;21.60;76.20
37658;DHT22;23500;53.268;8.308;2023-09-07T04:46:23;21.60;76.00
37658;DHT22;23500;53.268;8.308;2023-09-07T04:48:49;21.60;76.40
37658;DHT22;23500;53.268;8.308;2023-09-07T04:51:14;21.60;76.70
37658;DHT22;23500;53.268;8.308;2023-09-07T04:53:40;21.60;76.40
37658;DHT22;23500;53.268;8.308;2023-09-07T04:56:07;21.60;76.90
37658;DHT22;23500;53.268;8.308;2023-09-07T04:58:36;21.60;76.60
37658;DHT22;23500;53.268;8.308;2023-09-07T05:01:03;21.60;77.20
37658;DHT22;23500;53.268;8.308;2023-09-07T05:03:29;21.60;77.00
37658;DHT22;23500;53.268;8.308;2023-09-07T05:05:54;21.60;76.70
37658;DHT22;23500;53.268;8.308;2023-09-07T05:08:20;21.70;76.80
37658;DHT22;23500;53.268;8.308;2023-09-07T05:10:48;21.60;76.00
37658;DHT22;23500;53.268;8.308;2023-09-07T05:13:13;21.70;76.00
37658;DHT22;23500;53.268;8.308;2023-09-07T05:15:49;21.70;76.40
37658;DHT22;23500;53.268;8.308;2023-09-07T05:18:15;21.70;76.20
37658;DHT22;23500;53.268;8.308;2023-09-07T05:20:41;21.70;76.20
37658;DHT22;23500;53.268;8.308;2023-09-07T05:23:06;21.70;75.70
37658;DHT22;23500;53.268;8.308;2023-09-07T05:25:32;21.70;75.40
37658;DHT22;23500;53.268;8.308;2023-09-07T05:27:58;21.70;75.20
37658;DHT22;23500;53.268;8.308;2023-09-07T05:30:23;21.70;75.50
37658;DHT22;23500;53.268;8.308;2023-09-07T05:32:49;21.70;76.00
37658;DHT22;23500;53.268;8.308;2023-09-07T05:35:15;21.70;75.50
37658;DHT22;23500;53.268;8.308;2023-09-07T05:37:42;21.70;75.10
37658;DHT22;23500;53.268;8.308;2023-09-07T05:40:10;21.80;75.30
37658;DHT22;23500;53.268;8.308;2023-09-07T05:42:36;21.80;75.20
37658;DHT22;23500;53.268;8.308;2023-09-07T05:45:02;21.80;75.10
37658;DHT22;23500;53.268;8.308;2023-09-07T05:47:29;21.90;74.50
37658;DHT22;23500;53.268;8.308;2023-09-07T05:49:54;21.90;74.00
37658;DHT22;23500;53.268;8.308;2023-09-07T05:52:20;22.00;73.70
37658;DHT22;23500;53.268;8.308;2023-09-07T05:54:45;22.00;73.60
37658;DHT22;23500;53.268;8.308;2023-09-07T05:57:14;22.10;73.40
37658;DHT22;23500;53.268;8.308;2023-09-07T05:59:40;22.10;74.20
37658;DHT22;23500;53.268;8.308;2023-09-07T06:02:06;22.10;73.60
37658;DHT22;23500;53.268;8.308;2023-09-07T06:04:31;22.10;73.20
37658;DHT22;23500;53.268;8.308;2023-09-07T06:06:57;22.20;73.50
37658;DHT22;23500;53.268;8.308;2023-09-07T06:09:23;22.20;72.80
37658;DHT22;23500;53.268;8.308;2023-09-07T06:11:48;22.20;73.00
37658;DHT22;23500;53.268;8.308;2023-09-07T06:14:14;22.20;72.80
37658;DHT22;23500;53.268;8.308;2023-09-07T06:16:40;22.20;72.50
37658;DHT22;23500;53.268;8.308;2023-09-07T06:19:05;22.20;72.60
37658;DHT22;23500;53.268;8.308;2023-09-07T06:21:32;22.10;73.40
37658;DHT22;23500;53.268;8.308;2023-09-07T06:23:58;22.10;72.60
37658;DHT22;23500;53.268;8.308;2023-09-07T06:26:24;22.10;72.70
37658;DHT22;23500;53.268;8.308;2023-09-07T06:28:50;22.00;72.80
37658;DHT22;23500;53.268;8.308;2023-09-07T06:31:16;22.00;73.10
37658;DHT22;23500;53.268;8.308;2023-09-07T06:33:41;22.00;73.20
37658;DHT22;23500;53.268;8.308;2023-09-07T06:36:07;22.00;73.30
37658;DHT22;23500;53.268;8.308;2023-09-07T06:38:33;21.90;73.40
37658;DHT22;23500;53.268;8.308;2023-09-07T06:40:58;21.90;73.40
37658;DHT22;23500;53.268;8.308;2023-09-07T06:43:24;21.90;73.50
37658;DHT22;23500;53.268;8.308;2023-09-07T06:45:50;21.90;73.50
37658;DHT22;23500;53.268;8.308;2023-09-07T06:48:15;21.90;73.80
37658;DHT22;23500;53.268;8.308;2023-09-07T06:50:41;21.90;74.00
37658;DHT22;23500;53.268;8.308;2023-09-07T06:53:06;21.90;74.80
37658;DHT22;23500;53.268;8.308;2023-09-07T06:55:32;21.90;74.20
37658;DHT22;23500;53.268;8.308;2023-09-07T06:57:58;21.90;74.20
37658;DHT22;23500;53.268;8.308;2023-09-07T07:00:25;21.90;74.20
37658;DHT22;23500;53.268;8.308;2023-09-07T07:02:51;21.90;74.30
37658;DHT22;23500;53.268;8.308;2023-09-07T07:05:16;22.00;74.50
37658;DHT22;23500;53.268;8.308;2023-09-07T07:07:42;22.00;74.90
37658;DHT22;23500;53.268;8.308;2023-09-07T07:10:08;22.00;74.90
37658;DHT22;23500;53.268;8.308;2023-09-07T07:12:34;22.00;74.90
37658;DHT22;23500;53.268;8.308;2023-09-07T07:15:00;22.00;75.00
37658;DHT22;23500;53.268;8.308;2023-09-07T07:17:27;22.00;74.90
37658;DHT22;23500;53.268;8.308;2023-09-07T07:19:53;22.10;75.10
37658;DHT22;23500;53.268;8.308;2023-09-07T07:22:18;22.10;75.00
37658;DHT22;23500;53.268;8.308;2023-09-07T07:24:46;22.10;74.90
37658;DHT22;23500;53.268;8.308;2023-09-07T07:27:12;22.20;74.90
37658;DHT22;23500;53.268;8.308;2023-09-07T07:29:37;22.20;74.90
37658;DHT22;23500;53.268;8.308;2023-09-07T07:32:03;22.20;74.80
37658;DHT22;23500;53.268;8.308;2023-09-07T07:34:29;22.30;74.80
37658;DHT22;23500;53.268;8.308;2023-09-07T07:36:55;22.30;74.80
37658;DHT22;23500;53.268;8.308;2023-09-07T07:39:21;22.30;74.70
37658;DHT22;23500;53.268;8.308;2023-09-07T07:41:46;22.40;74.80
37658;DHT22;23500;53.268;8.308;2023-09-07T07:44:12;22.40;74.80
37658;DHT22;23500;53.268;8.308;2023-09-07T07:46:37;22.40;74.70
37658;DHT22;23500;53.268;8.308;2023-09-07T07:49:03;22.40;74.70
37658;DHT22;23500;53.268;8.308;2023-09-07T07:51:29;22.40;74.70
37658;DHT22;23500;53.268;8.308;2023-09-07T07:53:55;22.50;74.70
37658;DHT22;23500;53.268;8.308;2023-09-07T07:56:24;22.50;74.70
37658;DHT22;23500;53.268;8.308;2023-09-07T07:58:50;22.50;74.70
37658;DHT22;23500;53.268;8.308;2023-09-07T08:01:17;22.50;74.60
37658;DHT22;23500;53.268;8.308;2023-09-07T08:03:43;22.50;74.60
37658;DHT22;23500;53.268;8.308;2023-09-07T08:06:10;22.50;74.50
37658;DHT22;23500;53.268;8.308;2023-09-07T08:08:36;22.60;74.50
37658;DHT22;23500;53.268;8.308;2023-09-07T08:11:02;22.60;74.40
37658;DHT22;23500;53.268;8.308;2023-09-07T08:13:32;22.60;74.40
37658;DHT22;23500;53.268;8.308;2023-09-07T08:15:58;22.60;74.30
37658;DHT22;23500;53.268;8.308;2023-09-07T08:18:24;22.70;74.20
37658;DHT22;23500;53.268;8.308;2023-09-07T08:20:50;22.70;74.20
37658;DHT22;23500;53.268;8.308;2023-09-07T08:23:15;22.70;74.10
37658;DHT22;23500;53.268;8.308;2023-09-07T08:25:41;22.70;74.00
37658;DHT22;23500;53.268;8.308;2023-09-07T08:28:11;22.80;73.90
37658;DHT22;23500;53.268;8.308;2023-09-07T08:30:37;22.80;73.80
37658;DHT22;23500;53.268;8.308;2023-09-07T08:33:03;22.80;73.80
37658;DHT22;23500;53.268;8.308;2023-09-07T08:35:31;22.80;73.70
37658;DHT22;23500;53.268;8.308;2023-09-07T08:38:01;22.80;73.60
37658;DHT22;23500;53.268;8.308;2023-09-07T08:40:30;22.80;73.50
37658;DHT22;23500;53.268;8.308;2023-09-07T08:43:01;22.90;73.50
37658;DHT22;23500;53.268;8.308;2023-09-07T08:45:30;22.90;73.50
37658;DHT22;23500;53.268;8.308;2023-09-07T08:47:57;22.90;73.50
37658;DHT22;23500;53.268;8.308;2023-09-07T08:50:24;22.90;73.50
37658;DHT22;23500;53.268;8.308;2023-09-07T08:52:52;22.90;73.40
37658;DHT22;23500;53.268;8.308;2023-09-07T08:55:18;22.90;73.50
37658;DHT22;23500;53.268;8.308;2023-09-07T08:57:45;22.90;73.40
37658;DHT22;23500;53.268;8.308;2023-09-07T09:00:11;22.90;73.50
37658;DHT22;23500;53.268;8.308;2023-09-07T09:02:42;22.90;73.40
37658;DHT22;23500;53.268;8.308;2023-09-07T09:05:09;22.90;73.50
37658;DHT22;23500;53.268;8.308;2023-09-07T09:07:37;22.90;73.50
37658;DHT22;23500;53.268;8.308;2023-09-07T09:10:05;22.90;73.50
37658;DHT22;23500;53.268;8.308;2023-09-07T09:12:31;22.90;73.50
37658;DHT22;23500;53.268;8.308;2023-09-07T09:14:59;22.90;73.50
37658;DHT22;23500;53.268;8.308;2023-09-07T09:17:25;22.90;73.50
37658;DHT22;23500;53.268;8.308;2023-09-07T09:19:51;22.90;73.50
37658;DHT22;23500;53.268;8.308;2023-09-07T09:22:17;22.90;73.50
37658;DHT22;23500;53.268;8.308;2023-09-07T09:24:42;22.90;73.50
37658;DHT22;23500;53.268;8.308;2023-09-07T09:27:08;22.90;73.50
37658;DHT22;23500;53.268;8.308;2023-09-07T09:29:34;22.90;73.50
37658;DHT22;23500;53.268;8.308;2023-09-07T09:32:03;22.90;73.50
37658;DHT22;23500;53.268;8.308;2023-09-07T09:34:32;22.90;73.50
37658;DHT22;23500;53.268;8.308;2023-09-07T09:36:59;22.90;73.60
37658;DHT22;23500;53.268;8.308;2023-09-07T09:39:25;22.90;73.50
37658;DHT22;23500;53.268;8.308;2023-09-07T09:41:52;22.90;73.50
37658;DHT22;23500;53.268;8.308;2023-09-07T09:44:20;22.90;73.50
37658;DHT22;23500;53.268;8.308;2023-09-07T09:46:47;22.90;73.50
37658;DHT22;23500;53.268;8.308;2023-09-07T09:49:15;22.90;73.50
37658;DHT22;23500;53.268;8.308;2023-09-07T09:51:42;22.90;73.50
37658;DHT22;23500;53.268;8.308;2023-09-07T09:54:09;22.90;73.50
37658;DHT22;23500;53.268;8.308;2023-09-07T09:56:35;22.90;73.50
37658;DHT22;23500;53.268;8.308;2023-09-07T09:59:01;22.90;73.50
37658;DHT22;23500;53.268;8.308;2023-09-07T10:01:27;22.90;73.50
37658;DHT22;23500;53.268;8.308;2023-09-07T10:03:55;22.90;73.50
37658;DHT22;23500;53.268;8.308;2023-09-07T10:06:27;22.90;73.60
37658;DHT22;23500;53.268;8.308;2023-09-07T10:09:06;22.90;73.50
37658;DHT22;23500;53.268;8.308;2023-09-07T10:11:35;22.90;73.60
37658;DHT22;23500;53.268;8.308;2023-09-07T10:14:03;22.90;73.60
37658;DHT22;23500;53.268;8.308;2023-09-07T10:16:41;22.90;73.60
37658;DHT22;23500;53.268;8.308;2023-09-07T10:19:17;22.90;73.60
37658;DHT22;23500;53.268;8.308;2023-09-07T10:21:43;22.90;73.60
37658;DHT22;23500;53.268;8.308;2023-09-07T10:24:09;22.90;73.60
37658;DHT22;23500;53.268;8.308;2023-09-07T10:26:35;22.90;73.60
37658;DHT22;23500;53.268;8.308;2023-09-07T10:29:01;22.90;73.60
37658;DHT22;23500;53.268;8.308;2023-09-07T10:31:29;22.90;73.60
37658;DHT22;23500;53.268;8.308;2023-09-07T10:33:56;22.90;73.50
37658;DHT22;23500;53.268;8.308;2023-09-07T10:36:26;22.90;73.50
37658;DHT22;23500;53.268;8.308;2023-09-07T10:38:53;22.90;73.50
37658;DHT22;23500;53.268;8.308;2023-09-07T10:41:19;22.90;73.50
37658;DHT22;23500;53.268;8.308;2023-09-07T10:43:54;23.00;73.60
37658;DHT22;23500;53.268;8.308;2023-09-07T10:46:21;22.90;73.50
37658;DHT22;23500;53.268;8.308;2023-09-07T10:48:51;22.90;73.50
37658;DHT22;23500;53.268;8.308;2023-09-07T10:51:20;22.90;73.50
37658;DHT22;23500;53.268;8.308;2023-09-07T10:53:46;22.90;73.50
37658;DHT22;23500;53.268;8.308;2023-09-07T10:56:12;22.90;73.50
37658;DHT22;23500;53.268;8.308;2023-09-07T10:58:38;23.00;73.60
37658;DHT22;23500;53.268;8.308;2023-09-07T11:01:08;23.00;73.50
37658;DHT22;23500;53.268;8.308;2023-09-07T11:03:37;22.90;73.50
37658;DHT22;23500;53.268;8.308;2023-09-07T11:06:10;23.00;73.50
37658;DHT22;23500;53.268;8.308;2023-09-07T11:08:37;22.90;73.50
37658;DHT22;23500;53.268;8.308;2023-09-07T11:11:03;22.90;73.40
37658;DHT22;23500;53.268;8.308;2023-09-07T11:13:29;23.00;73.50
37658;DHT22;23500;53.268;8.308;2023-09-07T11:15:57;22.90;73.40
37658;DHT22;23500;53.268;8.308;2023-09-07T11:18:24;22.90;73.40
37658;DHT22;23500;53.268;8.308;2023-09-07T11:20:50;23.00;73.40
37658;DHT22;23500;53.268;8.308;2023-09-07T11:23:17;23.00;73.40
37658;DHT22;23500;53.268;8.308;2023-09-07T11:25:44;23.00;73.40
37658;DHT22;23500;53.268;8.308;2023-09-07T11:28:09;23.00;73.40
37658;DHT22;23500;53.268;8.308;2023-09-07T11:30:37;23.00;73.30
37658;DHT22;23500;53.268;8.308;2023-09-07T11:33:15;23.00;73.40
37658;DHT22;23500;53.268;8.308;2023-09-07T11:35:41;23.00;73.30
37658;DHT22;23500;53.268;8.308;2023-09-07T11:38:07;23.00;73.30
37658;DHT22;23500;53.268;8.308;2023-09-07T11:40:35;23.00;73.30
37658;DHT22;23500;53.268;8.308;2023-09-07T11:43:01;23.00;73.30
37658;DHT22;23500;53.268;8.308;2023-09-07T11:45:27;23.00;73.30
37658;DHT22;23500;53.268;8.308;2023-09-07T11:47:53;23.00;73.20
37658;DHT22;23500;53.268;8.308;2023-09-07T11:50:19;23.00;73.30
37658;DHT22;23500;53.268;8.308;2023-09-07T11:52:45;23.10;73.30
37658;DHT22;23500;53.268;8.308;2023-09-07T11:55:13;23.00;73.20
37658;DHT22;23500;53.268;8.308;2023-09-07T11:57:38;23.10;73.20
37658;DHT22;23500;53.268;8.308;2023-09-07T12:00:05;23.10;73.20
37658;DHT22;23500;53.268;8.308;2023-09-07T12:02:30;23.10;73.20
37658;DHT22;23500;53.268;8.308;2023-09-07T12:04:56;23.00;73.20
37658;DHT22;23500;53.268;8.308;2023-09-07T12:07:22;23.10;73.20
37658;DHT22;23500;53.268;8.308;2023-09-07T12:09:47;23.00;73.20
37658;DHT22;23500;53.268;8.308;2023-09-07T12:12:14;23.10;73.20
37658;DHT22;23500;53.268;8.308;2023-09-07T12:14:39;23.10;73.20
37658;DHT22;23500;53.268;8.308;2023-09-07T12:17:05;23.10;73.20
37658;DHT22;23500;53.268;8.308;2023-09-07T12:19:31;23.10;73.10
37658;DHT22;23500;53.268;8.308;2023-09-07T12:21:56;23.10;73.10
37658;DHT22;23500;53.268;8.308;2023-09-07T12:24:22;23.10;73.10
37658;DHT22;23500;53.268;8.308;2023-09-07T12:26:47;23.10;73.10
37658;DHT22;23500;53.268;8.308;2023-09-07T12:29:13;23.10;73.10
37658;DHT22;23500;53.268;8.308;2023-09-07T12:31:39;23.10;73.30
37658;DHT22;23500;53.268;8.308;2023-09-07T12:34:04;23.10;73.60
37658;DHT22;23500;53.268;8.308;2023-09-07T12:36:30;23.20;73.90
37658;DHT22;23500;53.268;8.308;2023-09-07T12:38:56;23.20;74.70
37658;DHT22;23500;53.268;8.308;2023-09-07T12:41:28;23.30;74.10
37658;DHT22;23500;53.268;8.308;2023-09-07T12:43:54;23.30;74.00
37658;DHT22;23500;53.268;8.308;2023-09-07T12:46:19;23.30;73.90
37658;DHT22;23500;53.268;8.308;2023-09-07T12:48:45;23.30;73.80
37658;DHT22;23500;53.268;8.308;2023-09-07T12:51:11;23.40;73.80
37658;DHT22;23500;53.268;8.308;2023-09-07T12:53:36;23.40;73.70
37658;DHT22;23500;53.268;8.308;2023-09-07T12:56:02;23.40;73.60
37658;DHT22;23500;53.268;8.308;2023-09-07T12:58:28;23.40;73.60
37658;DHT22;23500;53.268;8.308;2023-09-07T13:00:54;23.50;73.60
37658;DHT22;23500;53.268;8.308;2023-09-07T13:03:20;23.50;73.40
37658;DHT22;23500;53.268;8.308;2023-09-07T13:05:45;23.50;73.40
37658;DHT22;23500;53.268;8.308;2023-09-07T13:08:11;23.60;73.50
37658;DHT22;23500;53.268;8.308;2023-09-07T13:10:37;23.50;73.40
37658;DHT22;23500;53.268;8.308;2023-09-07T13:13:04;23.60;73.40
37658;DHT22;23500;53.268;8.308;2023-09-07T13:15:29;23.60;73.40
37658;DHT22;23500;53.268;8.308;2023-09-07T13:17:55;23.60;73.30
37658;DHT22;23500;53.268;8.308;2023-09-07T13:20:21;23.60;73.30
37658;DHT22;23500;53.268;8.308;2023-09-07T13:22:47;23.60;73.20
37658;DHT22;23500;53.268;8.308;2023-09-07T13:25:12;23.60;73.20
37658;DHT22;23500;53.268;8.308;2023-09-07T13:27:38;23.60;73.10
37658;DHT22;23500;53.268;8.308;2023-09-07T13:30:05;23.60;73.10
37658;DHT22;23500;53.268;8.308;2023-09-07T13:32:31;23.60;73.70
37658;DHT22;23500;53.268;8.308;2023-09-07T13:34:58;23.60;73.00
37658;DHT22;23500;53.268;8.308;2023-09-07T13:37:23;23.60;73.00
37658;DHT22;23500;53.268;8.308;2023-09-07T13:39:49;23.70;73.00
37658;DHT22;23500;53.268;8.308;2023-09-07T13:42:15;23.60;73.00
37658;DHT22;23500;53.268;8.308;2023-09-07T13:44:41;23.60;73.00
37658;DHT22;23500;53.268;8.308;2023-09-07T13:47:06;23.70;73.10
37658;DHT22;23500;53.268;8.308;2023-09-07T13:49:34;23.70;73.00
37658;DHT22;23500;53.268;8.308;2023-09-07T13:51:59;23.70;73.10
37658;DHT22;23500;53.268;8.308;2023-09-07T13:54:25;23.70;73.10
37658;DHT22;23500;53.268;8.308;2023-09-07T13:56:50;23.70;73.10
37658;DHT22;23500;53.268;8.308;2023-09-07T13:59:16;23.70;73.10
37658;DHT22;23500;53.268;8.308;2023-09-07T14:01:42;23.70;73.10
37658;DHT22;23500;53.268;8.308;2023-09-07T14:04:07;23.70;73.10
37658;DHT22;23500;53.268;8.308;2023-09-07T14:06:33;23.70;72.90
37658;DHT22;23500;53.268;8.308;2023-09-07T14:08:59;23.70;72.90
37658;DHT22;23500;53.268;8.308;2023-09-07T14:11:24;23.70;72.90
37658;DHT22;23500;53.268;8.308;2023-09-07T14:13:50;23.70;72.90
37658;DHT22;23500;53.268;8.308;2023-09-07T14:16:19;23.70;72.90
37658;DHT22;23500;53.268;8.308;2023-09-07T14:18:46;23.70;72.90
37658;DHT22;23500;53.268;8.308;2023-09-07T14:21:14;23.70;72.90
37658;DHT22;23500;53.268;8.308;2023-09-07T14:23:40;23.70;72.90
37658;DHT22;23500;53.268;8.308;2023-09-07T14:26:06;23.70;72.90
37658;DHT22;23500;53.268;8.308;2023-09-07T14:28:31;23.70;72.90
37658;DHT22;23500;53.268;8.308;2023-09-07T14:30:57;23.60;72.90
37658;DHT22;23500;53.268;8.308;2023-09-07T14:33:24;23.60;72.80
37658;DHT22;23500;53.268;8.308;2023-09-07T14:35:51;23.60;72.80
37658;DHT22;23500;53.268;8.308;2023-09-07T14:38:20;23.60;72.80
37658;DHT22;23500;53.268;8.308;2023-09-07T14:40:46;23.60;72.80
37658;DHT22;23500;53.268;8.308;2023-09-07T14:43:14;23.70;72.90
37658;DHT22;23500;53.268;8.308;2023-09-07T14:45:40;23.70;72.90
37658;DHT22;23500;53.268;8.308;2023-09-07T14:48:06;23.70;72.80
37658;DHT22;23500;53.268;8.308;2023-09-07T14:50:31;23.60;72.80
37658;DHT22;23500;53.268;8.308;2023-09-07T14:52:57;23.60;72.80
37658;DHT22;23500;53.268;8.308;2023-09-07T14:55:23;23.60;72.80
37658;DHT22;23500;53.268;8.308;2023-09-07T14:57:49;23.70;72.70
37658;DHT22;23500;53.268;8.308;2023-09-07T15:00:14;23.60;72.70
37658;DHT22;23500;53.268;8.308;2023-09-07T15:02:40;23.70;72.70
37658;DHT22;23500;53.268;8.308;2023-09-07T15:05:06;23.60;72.60
37658;DHT22;23500;53.268;8.308;2023-09-07T15:07:31;23.60;72.70
37658;DHT22;23500;53.268;8.308;2023-09-07T15:09:57;23.70;72.70
37658;DHT22;23500;53.268;8.308;2023-09-07T15:12:23;23.70;72.70
37658;DHT22;23500;53.268;8.308;2023-09-07T15:14:48;23.60;72.60
37658;DHT22;23500;53.268;8.308;2023-09-07T15:17:15;23.70;72.70
37658;DHT22;23500;53.268;8.308;2023-09-07T15:19:42;23.60;72.60
37658;DHT22;23500;53.268;8.308;2023-09-07T15:22:08;23.60;72.60
37658;DHT22;23500;53.268;8.308;2023-09-07T15:24:33;23.60;72.60
37658;DHT22;23500;53.268;8.308;2023-09-07T15:27:09;23.60;72.60